Terminal Aerodrome Forecast
Issued by NWS

Current Version | Previous Version | Text Only | Print | Product List | Glossary On
Versions: 1 2 3 4 5 6 7 8 9 10 11 12 13 14 15
000
FTUS42 KTBW 211100
TAFRSW
TAF
KRSW 211131Z 2112/2212 VRB03KT P6SM VCSH SCT035 BKN050
     FM211600 19005KT P6SM VCTS SCT025CB BKN035
     FM212100 24006KT P6SM SCT025 BKN100
     FM220000 VRB03KT P6SM BKN100 OVC200=

USA.gov is the U.S. government's official web portal to all federal, state and local government web resources and services.